createdAt,value
2023-01-09T00:02:18.876Z,2.00
2023-01-09T00:04:46.617Z,2.35
2023-01-09T00:07:14.277Z,1.70
2023-01-09T00:09:41.992Z,1.63
2023-01-09T00:12:09.718Z,2.17
2023-01-09T00:14:37.372Z,1.63
2023-01-09T00:17:06.458Z,1.55
2023-01-09T00:19:34.175Z,1.10
2023-01-09T00:22:01.977Z,1.60
2023-01-09T00:24:30.111Z,1.52
2023-01-09T00:26:57.808Z,1.33
2023-01-09T00:29:25.600Z,1.50
2023-01-09T00:31:55.984Z,1.10
2023-01-09T00:34:25.312Z,1.30
2023-01-09T00:36:55.194Z,1.23
2023-01-09T00:39:23.195Z,1.08
2023-01-09T00:41:52.589Z,1.65
2023-01-09T00:44:22.968Z,1.55
2023-01-09T00:46:51.619Z,2.05
2023-01-09T00:49:19.680Z,1.17
2023-01-09T00:51:49.060Z,1.27
2023-01-09T00:54:18.597Z,1.67
2023-01-09T00:56:46.817Z,1.70
2023-01-09T00:59:14.469Z,1.48
2023-01-09T01:01:42.280Z,1.02
2023-01-09T01:04:23.978Z,1.48
2023-01-09T01:07:10.275Z,1.45
2023-01-09T01:09:38.166Z,1.30
2023-01-09T01:12:07.575Z,1.17
2023-01-09T01:14:35.629Z,1.70
2023-01-09T01:17:03.427Z,0.88
2023-01-09T01:19:31.184Z,1.10
2023-01-09T01:22:00.212Z,1.40
2023-01-09T01:24:27.819Z,1.25
2023-01-09T01:26:55.464Z,1.35
2023-01-09T01:29:23.143Z,1.30
2023-01-09T01:31:52.250Z,1.20
2023-01-09T01:34:19.949Z,0.75
2023-01-09T01:36:47.569Z,1.45
2023-01-09T01:39:17.131Z,1.95
2023-01-09T01:41:44.747Z,1.15
2023-01-09T01:44:27.220Z,0.93
2023-01-09T01:46:55.540Z,1.20
2023-01-09T01:49:23.642Z,0.77
2023-01-09T01:51:52.881Z,0.73
2023-01-09T01:54:24.651Z,0.90
2023-01-09T01:56:56.980Z,0.77
2023-01-09T01:59:25.947Z,1.63
2023-01-09T02:01:55.513Z,1.52
2023-01-09T02:04:23.309Z,1.20
2023-01-09T02:06:53.027Z,1.02
2023-01-09T02:09:22.935Z,1.40
2023-01-09T02:11:52.402Z,1.10
2023-01-09T02:14:20.761Z,1.27
2023-01-09T02:16:54.542Z,1.52
2023-01-09T02:19:34.923Z,1.02
2023-01-09T02:22:08.477Z,1.20
2023-01-09T02:24:52.753Z,0.73
2023-01-09T02:27:25.764Z,1.58
2023-01-09T02:30:11.553Z,0.77
2023-01-09T02:35:17.821Z,0.60
2023-01-09T02:37:49.777Z,0.70
2023-01-09T02:40:19.533Z,1.42
2023-01-09T02:42:48.379Z,1.30
2023-01-09T02:45:16.183Z,1.33
2023-01-09T02:47:44.918Z,0.80
2023-01-09T02:50:16.246Z,0.82
2023-01-09T02:53:01.509Z,1.23
2023-01-09T02:55:36.237Z,0.52
2023-01-09T02:58:08.010Z,0.80
2023-01-09T03:00:38.824Z,1.20
2023-01-09T03:03:10.396Z,1.13
2023-01-09T03:05:42.022Z,1.63
2023-01-09T03:08:13.129Z,0.82
2023-01-09T03:10:42.148Z,0.73
2023-01-09T03:13:11.410Z,1.20
2023-01-09T03:15:40.777Z,0.80
2023-01-09T03:18:09.986Z,1.25
2023-01-09T03:20:39.777Z,0.82
2023-01-09T03:23:08.251Z,1.27
2023-01-09T03:25:35.925Z,1.58
2023-01-09T03:28:06.899Z,0.88
2023-01-09T03:30:35.266Z,0.90
2023-01-09T03:33:03.254Z,1.25
2023-01-09T03:35:30.960Z,1.00
2023-01-09T03:38:00.152Z,0.90
2023-01-09T03:40:27.805Z,0.63
2023-01-09T03:42:55.471Z,1.55
2023-01-09T03:45:23.217Z,1.48
2023-01-09T03:47:52.959Z,1.17
2023-01-09T03:50:20.871Z,1.00
2023-01-09T03:52:48.513Z,1.48
2023-01-09T03:55:17.748Z,1.15
2023-01-09T03:57:45.399Z,1.13
2023-01-09T04:00:13.600Z,0.98
2023-01-09T04:02:41.468Z,1.23
2023-01-09T04:05:09.493Z,1.10
2023-01-09T04:07:37.350Z,1.40
2023-01-09T04:10:05.257Z,1.17
2023-01-09T04:12:34.245Z,1.23
2023-01-09T04:15:01.903Z,0.95
2023-01-09T04:17:29.526Z,1.05
2023-01-09T04:19:57.387Z,0.90
2023-01-09T04:22:25.377Z,0.93
2023-01-09T04:24:53.039Z,1.00
2023-01-09T04:27:20.710Z,1.10
2023-01-09T04:29:50.070Z,1.13
2023-01-09T04:32:17.947Z,1.15
2023-01-09T04:34:45.624Z,1.00
2023-01-09T04:37:13.302Z,1.10
2023-01-09T04:39:41.759Z,0.85
2023-01-09T04:42:09.482Z,0.95
2023-01-09T04:44:37.273Z,1.92
2023-01-09T04:47:06.354Z,1.30
2023-01-09T04:49:34.058Z,1.10
2023-01-09T04:52:01.705Z,1.30
2023-01-09T04:54:29.400Z,1.10
2023-01-09T04:56:57.124Z,0.93
2023-01-09T04:59:24.811Z,1.00
2023-01-09T05:01:54.864Z,1.08
2023-01-09T05:04:24.072Z,1.90
2023-01-09T05:06:51.799Z,0.90
2023-01-09T05:09:19.720Z,1.60
2023-01-09T05:11:47.353Z,1.10
2023-01-09T05:14:15.025Z,1.17
2023-01-09T05:16:42.706Z,1.65
2023-01-09T05:19:10.492Z,1.40
2023-01-09T05:21:39.527Z,1.42
2023-01-09T05:24:07.391Z,0.90
2023-01-09T05:26:35.091Z,0.80
2023-01-09T05:29:02.767Z,1.48
2023-01-09T05:31:30.681Z,1.65
2023-01-09T05:33:59.319Z,1.00
2023-01-09T05:36:27.014Z,1.52
2023-01-09T05:38:57.831Z,1.05
2023-01-09T05:41:26.249Z,1.00
2023-01-09T05:43:54.080Z,0.95
2023-01-09T05:46:21.778Z,0.73
2023-01-09T05:48:49.547Z,1.52
2023-01-09T05:51:17.259Z,0.90
2023-01-09T05:53:44.973Z,0.73
2023-01-09T05:56:13.957Z,1.08
2023-01-09T05:58:41.574Z,0.80
2023-01-09T06:01:09.824Z,1.20
2023-01-09T06:03:37.669Z,0.75
2023-01-09T06:06:05.501Z,1.05
2023-01-09T06:08:33.174Z,0.80
2023-01-09T06:11:00.867Z,1.08
2023-01-09T06:13:29.886Z,0.70
2023-01-09T06:15:57.551Z,0.85
2023-01-09T06:18:25.225Z,1.30
2023-01-09T06:20:52.940Z,0.55
2023-01-09T06:23:20.605Z,0.80
2023-01-09T06:25:48.498Z,0.80
2023-01-09T06:28:16.267Z,1.15
2023-01-09T06:30:45.564Z,1.17
2023-01-09T06:33:13.292Z,0.82
2023-01-09T06:35:40.969Z,0.77
2023-01-09T06:38:08.632Z,0.77
2023-01-09T06:40:37.028Z,0.95
2023-01-09T06:43:04.753Z,0.55
2023-01-09T06:45:32.533Z,0.75
2023-01-09T06:48:01.555Z,0.60
2023-01-09T06:50:29.206Z,0.65
2023-01-09T06:52:56.886Z,0.77
2023-01-09T06:55:26.492Z,0.77
2023-01-09T06:57:54.187Z,1.05
2023-01-09T07:00:22.155Z,0.38
2023-01-09T07:02:50.356Z,1.42
2023-01-09T07:05:19.595Z,0.63
2023-01-09T07:07:48.554Z,0.98
2023-01-09T07:10:16.609Z,0.55
2023-01-09T07:12:44.333Z,0.43
2023-01-09T07:15:12.351Z,0.80
2023-01-09T07:17:40.042Z,0.75
2023-01-09T07:20:08.291Z,0.95
2023-01-09T07:22:37.400Z,0.60
2023-01-09T07:25:05.388Z,0.73
2023-01-09T07:27:33.241Z,1.13
2023-01-09T07:30:00.919Z,0.80
2023-01-09T07:32:28.592Z,1.25
2023-01-09T07:34:56.278Z,0.77
2023-01-09T07:37:23.933Z,1.10
2023-01-09T07:39:53.122Z,0.75
2023-01-09T07:42:21.440Z,1.17
2023-01-09T07:44:49.140Z,0.82
2023-01-09T07:47:16.782Z,1.55
2023-01-09T07:49:44.558Z,0.88
2023-01-09T07:52:12.302Z,0.63
2023-01-09T07:54:39.958Z,1.15
2023-01-09T07:57:08.981Z,0.60
2023-01-09T07:59:36.655Z,0.80
2023-01-09T08:02:05.739Z,1.23
2023-01-09T08:04:33.705Z,0.77
2023-01-09T08:07:03.185Z,0.80
2023-01-09T08:09:30.950Z,0.63
2023-01-09T08:11:58.622Z,0.70
2023-01-09T08:14:27.680Z,0.70
2023-01-09T08:16:55.298Z,0.85
2023-01-09T08:19:23.991Z,1.15
2023-01-09T08:21:51.666Z,0.63
2023-01-09T08:24:19.439Z,0.75
2023-01-09T08:26:47.174Z,0.32
2023-01-09T08:29:15.105Z,0.25
2023-01-09T08:31:44.282Z,0.40
2023-01-09T08:34:11.982Z,0.55
2023-01-09T08:36:39.646Z,0.57
2023-01-09T08:39:07.314Z,0.45
2023-01-09T08:41:52.532Z,0.32
2023-01-09T08:44:37.883Z,0.20
2023-01-09T08:47:07.423Z,0.93
2023-01-09T08:49:36.000Z,0.70
2023-01-09T08:52:03.696Z,0.40
2023-01-09T08:54:31.414Z,1.02
2023-01-09T08:56:59.200Z,0.68
2023-01-09T08:59:27.026Z,0.50
2023-01-09T09:01:54.689Z,1.05
2023-01-09T09:04:23.922Z,1.05
2023-01-09T09:06:51.604Z,0.73
2023-01-09T09:09:19.593Z,0.40
2023-01-09T09:11:47.481Z,0.85
2023-01-09T09:14:32.642Z,1.13
2023-01-09T09:17:00.406Z,0.57
2023-01-09T09:19:29.391Z,0.88
2023-01-09T09:21:57.251Z,0.60
2023-01-09T09:24:24.939Z,0.85
2023-01-09T09:26:52.724Z,0.68
2023-01-09T09:29:20.383Z,0.65
2023-01-09T09:31:48.245Z,0.52
2023-01-09T09:34:16.094Z,0.95
2023-01-09T09:36:45.195Z,0.68
2023-01-09T09:39:12.867Z,0.68
2023-01-09T09:42:14.184Z,1.02
2023-01-09T09:44:54.335Z,0.50
2023-01-09T09:47:38.317Z,0.63
2023-01-09T09:50:12.192Z,0.85
2023-01-09T09:52:45.058Z,0.70
2023-01-09T09:55:16.812Z,0.65
2023-01-09T09:57:45.085Z,0.65
2023-01-09T10:00:17.469Z,0.70
2023-01-09T10:02:47.409Z,0.50
2023-01-09T10:05:18.124Z,0.60
2023-01-09T10:07:49.699Z,0.43
2023-01-09T10:10:20.406Z,0.40
2023-01-09T10:12:52.443Z,0.65
2023-01-09T10:15:22.560Z,0.45
2023-01-09T10:17:55.836Z,0.70
2023-01-09T10:20:38.658Z,0.73
2023-01-09T10:23:13.112Z,0.77
2023-01-09T10:25:42.823Z,0.40
2023-01-09T10:28:19.215Z,0.93
2023-01-09T10:30:49.543Z,0.68
2023-01-09T10:33:33.034Z,0.70
2023-01-09T10:36:14.769Z,0.60
2023-01-09T10:38:46.206Z,0.63
2023-01-09T10:41:15.929Z,1.10
2023-01-09T10:43:45.732Z,1.00
2023-01-09T10:46:18.206Z,0.82
2023-01-09T10:48:48.969Z,0.93
2023-01-09T10:51:19.213Z,1.10
2023-01-09T10:53:50.165Z,1.08
2023-01-09T10:56:20.952Z,0.98
2023-01-09T10:58:49.442Z,1.35
2023-01-09T11:01:18.048Z,0.98
2023-01-09T11:03:45.734Z,0.90
2023-01-09T11:06:19.192Z,0.60
2023-01-09T11:08:50.757Z,1.10
2023-01-09T11:11:32.662Z,0.88
2023-01-09T11:14:08.383Z,0.98
2023-01-09T11:16:36.096Z,0.90
2023-01-09T11:19:03.775Z,1.08
2023-01-09T11:21:33.113Z,1.25
2023-01-09T11:24:26.697Z,1.00
2023-01-09T11:26:55.328Z,0.80
2023-01-09T11:29:24.618Z,1.33
2023-01-09T11:31:53.276Z,1.42
2023-01-09T11:34:22.657Z,1.45
2023-01-09T11:36:50.921Z,0.90
2023-01-09T11:39:23.891Z,1.23
2023-01-09T11:41:54.520Z,1.10
2023-01-09T11:44:22.796Z,1.13
2023-01-09T11:46:50.543Z,2.08
2023-01-09T11:49:23.638Z,1.02
2023-01-09T11:52:15.983Z,1.00
2023-01-09T11:54:47.054Z,0.82
2023-01-09T11:57:14.887Z,1.08
2023-01-09T11:59:42.577Z,1.10
2023-01-09T12:02:33.955Z,1.10
2023-01-09T12:05:02.670Z,1.20
2023-01-09T12:07:38.479Z,1.90
2023-01-09T12:10:15.395Z,1.23
2023-01-09T12:12:50.309Z,1.50
2023-01-09T12:15:23.228Z,0.85
2023-01-09T12:17:57.676Z,1.45
2023-01-09T12:20:38.388Z,1.38
2023-01-09T12:23:14.131Z,1.10
2023-01-09T12:25:49.228Z,0.95
2023-01-09T12:28:29.236Z,1.02
2023-01-09T12:31:03.117Z,1.58
2023-01-09T12:33:39.369Z,2.22
2023-01-09T12:36:12.283Z,1.40
2023-01-09T12:38:47.816Z,2.05
2023-01-09T12:41:22.812Z,1.42
2023-01-09T12:43:56.680Z,1.15
2023-01-09T12:46:26.405Z,1.42
2023-01-09T12:49:05.646Z,1.20
2023-01-09T12:51:36.288Z,1.75
2023-01-09T12:54:06.648Z,1.30
2023-01-09T12:56:37.475Z,2.10
2023-01-09T12:59:11.394Z,1.52
2023-01-09T13:01:41.313Z,1.52
2023-01-09T13:04:12.356Z,1.75
2023-01-09T13:06:42.553Z,2.08
2023-01-09T13:09:15.923Z,2.35
2023-01-09T13:11:48.430Z,3.67
2023-01-09T13:14:20.556Z,1.42
2023-01-09T13:16:49.728Z,2.08
2023-01-09T13:19:19.636Z,2.45
2023-01-09T13:21:47.726Z,2.47
2023-01-09T13:24:17.257Z,1.65
2023-01-09T13:26:48.167Z,2.33
2023-01-09T13:29:17.337Z,2.70
2023-01-09T13:31:59.924Z,1.90
2023-01-09T13:34:28.826Z,1.60
2023-01-09T13:36:57.701Z,1.67
2023-01-09T13:39:26.512Z,1.50
2023-01-09T13:42:16.163Z,1.35
2023-01-09T13:44:44.281Z,1.55
2023-01-09T13:47:19.996Z,1.63
2023-01-09T13:50:01.904Z,1.58
2023-01-09T13:52:31.627Z,2.00
2023-01-09T13:55:14.785Z,1.67
2023-01-09T13:57:45.677Z,1.70
2023-01-09T14:00:31.998Z,1.90
2023-01-09T14:03:18.092Z,1.38
2023-01-09T14:06:06.361Z,1.30
2023-01-09T14:08:34.510Z,1.27
2023-01-09T14:11:03.164Z,2.72
2023-01-09T14:13:34.038Z,1.83
2023-01-09T14:16:06.290Z,1.13
2023-01-09T14:18:35.158Z,1.73
2023-01-09T14:21:04.047Z,1.52
2023-01-09T14:23:51.093Z,1.33
2023-01-09T14:26:21.299Z,1.63
2023-01-09T14:28:50.628Z,1.38
2023-01-09T14:31:30.965Z,1.20
2023-01-09T14:34:23.911Z,1.60
2023-01-09T14:36:59.919Z,1.48
2023-01-09T14:39:28.312Z,1.88
2023-01-09T14:42:05.820Z,1.23
2023-01-09T14:44:45.568Z,1.33
2023-01-09T14:47:18.641Z,1.98
2023-01-09T14:49:48.141Z,1.60
2023-01-09T14:52:19.738Z,1.35
2023-01-09T14:54:48.156Z,1.60
2023-01-09T14:57:24.175Z,1.08
2023-01-09T15:00:02.845Z,1.58
2023-01-09T15:02:32.308Z,1.48
2023-01-09T15:05:01.830Z,1.50
2023-01-09T15:07:34.291Z,1.25
2023-01-09T15:10:03.458Z,1.38
2023-01-09T15:12:32.357Z,1.45
2023-01-09T15:15:01.728Z,2.10
2023-01-09T15:17:33.269Z,1.30
2023-01-09T15:20:01.744Z,2.45
2023-01-09T15:22:30.451Z,1.80
2023-01-09T15:24:58.285Z,1.90
2023-01-09T15:27:27.362Z,1.98
2023-01-09T15:29:55.029Z,2.88
2023-01-09T15:32:24.905Z,1.80
2023-01-09T15:34:54.632Z,1.88
2023-01-09T15:37:27.169Z,1.75
2023-01-09T15:39:55.059Z,1.60
2023-01-09T15:42:43.056Z,1.98
2023-01-09T15:45:23.060Z,1.85
2023-01-09T15:47:50.847Z,1.73
2023-01-09T15:50:27.783Z,2.35
2023-01-09T15:52:56.035Z,1.70
2023-01-09T15:55:35.134Z,1.73
2023-01-09T15:58:03.131Z,1.50
2023-01-09T16:00:33.674Z,2.50
2023-01-09T16:03:11.454Z,1.23
2023-01-09T16:05:44.838Z,1.90
2023-01-09T16:08:24.143Z,1.80
2023-01-09T16:10:53.293Z,1.83
2023-01-09T16:13:22.751Z,2.42
2023-01-09T16:15:50.663Z,2.75
2023-01-09T16:18:22.871Z,2.60
2023-01-09T16:21:03.824Z,1.65
2023-01-09T16:23:32.330Z,2.22
2023-01-09T16:26:07.439Z,2.53
2023-01-09T16:28:35.108Z,3.15
2023-01-09T16:31:04.244Z,2.33
2023-01-09T16:33:32.802Z,2.53
2023-01-09T16:36:03.428Z,2.30
2023-01-09T16:38:31.423Z,2.65
2023-01-09T16:41:21.203Z,2.20
2023-01-09T16:43:48.882Z,2.35
2023-01-09T16:46:17.138Z,2.72
2023-01-09T16:48:45.202Z,2.33
2023-01-09T16:51:16.988Z,1.98
2023-01-09T16:53:45.141Z,1.83
2023-01-09T16:56:18.556Z,2.08
2023-01-09T16:58:46.442Z,1.95
2023-01-09T17:01:15.062Z,1.55
2023-01-09T17:03:45.343Z,1.92
2023-01-09T17:06:17.423Z,1.50
2023-01-09T17:08:45.403Z,1.85
2023-01-09T17:11:20.004Z,1.73
2023-01-09T17:13:48.154Z,1.47
2023-01-09T17:16:16.613Z,2.20
2023-01-09T17:18:44.613Z,2.13
2023-01-09T17:21:17.859Z,2.53
2023-01-09T17:23:48.132Z,2.33
2023-01-09T17:26:36.092Z,2.15
2023-01-09T17:29:05.186Z,2.55
2023-01-09T17:31:32.929Z,2.75
2023-01-09T17:34:00.737Z,2.58
2023-01-09T17:36:32.245Z,2.53
2023-01-09T17:39:00.468Z,2.33
2023-01-09T17:41:29.808Z,2.42
2023-01-09T17:43:58.907Z,2.88
2023-01-09T17:46:28.364Z,3.03
2023-01-09T17:48:56.136Z,2.80
2023-01-09T17:51:24.501Z,2.80
2023-01-09T17:53:53.559Z,3.15
2023-01-09T17:56:22.515Z,3.63
2023-01-09T17:58:50.399Z,2.97
2023-01-09T18:01:18.885Z,2.47
2023-01-09T18:03:48.940Z,4.22
2023-01-09T18:06:17.830Z,3.55
2023-01-09T18:08:45.726Z,3.10
2023-01-09T18:11:17.283Z,3.20
2023-01-09T18:13:45.131Z,4.28
2023-01-09T18:16:13.545Z,5.10
2023-01-09T18:18:41.475Z,3.85
2023-01-09T18:21:10.319Z,4.25
2023-01-09T18:23:38.730Z,4.90
2023-01-09T18:26:08.334Z,3.55
2023-01-09T18:28:38.528Z,4.45
2023-01-09T18:31:07.401Z,3.78
2023-01-09T18:33:35.151Z,5.10
2023-01-09T18:36:07.268Z,3.75
2023-01-09T18:38:35.036Z,4.03
2023-01-09T18:41:03.159Z,4.10
2023-01-09T18:43:31.571Z,5.43
2023-01-09T18:46:00.773Z,4.18
2023-01-09T18:48:28.597Z,4.03
2023-01-09T18:51:03.130Z,4.93
2023-01-09T18:53:31.252Z,5.15
2023-01-09T18:55:58.935Z,4.47
2023-01-09T18:58:26.648Z,5.95
2023-01-09T19:00:55.547Z,4.15
2023-01-09T19:03:24.755Z,3.47
2023-01-09T19:05:52.457Z,3.42
2023-01-09T19:08:22.865Z,3.22
2023-01-09T19:10:53.670Z,4.20
2023-01-09T19:13:21.575Z,3.83
2023-01-09T19:15:49.287Z,2.90
2023-01-09T19:18:17.007Z,4.18
2023-01-09T19:20:46.029Z,3.00
2023-01-09T19:23:13.757Z,3.33
2023-01-09T19:25:41.564Z,3.97
2023-01-09T19:28:09.264Z,3.00
2023-01-09T19:30:37.071Z,2.78
2023-01-09T19:33:04.835Z,3.03
2023-01-09T19:35:33.058Z,3.10
2023-01-09T19:38:02.142Z,2.75
2023-01-09T19:40:30.011Z,3.08
2023-01-09T19:42:58.511Z,4.25
2023-01-09T19:45:26.268Z,2.95
2023-01-09T19:47:54.045Z,3.50
2023-01-09T19:50:22.255Z,2.90
2023-01-09T19:52:50.971Z,2.47
2023-01-09T19:55:20.109Z,2.72
2023-01-09T19:57:47.785Z,2.58
2023-01-09T20:00:15.788Z,2.90
2023-01-09T20:02:43.555Z,2.40
2023-01-09T20:05:11.460Z,2.03
2023-01-09T20:07:39.137Z,2.85
2023-01-09T20:10:08.130Z,2.67
2023-01-09T20:12:37.289Z,2.28
2023-01-09T20:15:06.236Z,3.53
2023-01-09T20:17:33.946Z,2.83
2023-01-09T20:20:01.629Z,2.42
2023-01-09T20:22:29.296Z,3.08
2023-01-09T20:24:56.979Z,2.80
2023-01-09T20:27:24.664Z,2.13
2023-01-09T20:29:53.893Z,1.80
2023-01-09T20:32:21.627Z,2.03
2023-01-09T20:34:49.613Z,2.80
2023-01-09T20:37:17.314Z,1.80
2023-01-09T20:39:45.056Z,2.33
2023-01-09T20:42:12.721Z,2.40
2023-01-09T20:44:40.385Z,2.40
2023-01-09T20:47:09.404Z,3.35
2023-01-09T20:49:37.120Z,2.13
2023-01-09T20:52:04.949Z,2.00
2023-01-09T20:54:32.849Z,2.00
2023-01-09T20:57:00.539Z,2.78
2023-01-09T20:59:28.553Z,2.00
2023-01-09T21:01:56.314Z,1.88
2023-01-09T21:04:25.411Z,2.05
2023-01-09T21:06:53.138Z,1.10
2023-01-09T21:09:20.802Z,2.55
2023-01-09T21:11:48.715Z,1.88
2023-01-09T21:14:16.581Z,2.17
2023-01-09T21:16:53.682Z,1.90
2023-01-09T21:19:22.465Z,2.30
2023-01-09T21:21:53.240Z,2.05
2023-01-09T21:24:21.313Z,2.15
2023-01-09T21:26:49.126Z,2.15
2023-01-09T21:29:16.856Z,2.55
2023-01-09T21:31:45.070Z,1.50
2023-01-09T21:34:14.847Z,2.53
2023-01-09T21:36:45.007Z,2.40
2023-01-09T21:39:14.150Z,2.33
2023-01-09T21:41:59.163Z,1.77
2023-01-09T21:44:44.025Z,1.50
2023-01-09T21:47:11.969Z,0.98
2023-01-09T21:49:41.003Z,1.63
2023-01-09T21:52:08.993Z,1.70
2023-01-09T21:54:38.016Z,2.08
2023-01-09T21:57:06.602Z,1.85
2023-01-09T21:59:34.395Z,1.80
2023-01-09T22:02:02.036Z,2.25
2023-01-09T22:04:30.504Z,1.83
2023-01-09T22:06:58.282Z,1.90
2023-01-09T22:09:25.992Z,1.95
2023-01-09T22:11:55.010Z,1.98
2023-01-09T22:14:22.962Z,1.95
2023-01-09T22:16:50.714Z,2.15
2023-01-09T22:19:18.503Z,2.47
2023-01-09T22:21:46.316Z,1.40
2023-01-09T22:24:14.686Z,2.25
2023-01-09T22:26:42.362Z,1.33
2023-01-09T22:29:11.545Z,1.98
2023-01-09T22:31:40.617Z,1.70
2023-01-09T22:34:08.760Z,1.50
2023-01-09T22:36:38.084Z,2.45
2023-01-09T22:39:05.919Z,1.73
2023-01-09T22:41:33.591Z,1.90
2023-01-09T22:44:01.282Z,2.08
2023-01-09T22:46:31.989Z,6.28
2023-01-09T22:48:59.660Z,1.67
2023-01-09T22:51:27.559Z,1.75
2023-01-09T22:53:55.437Z,2.25
2023-01-09T22:56:23.258Z,1.83
2023-01-09T22:58:51.251Z,2.22
2023-01-09T23:01:19.161Z,3.03
2023-01-09T23:03:48.239Z,1.48
2023-01-09T23:06:16.838Z,1.85
2023-01-09T23:08:44.698Z,2.08
2023-01-09T23:11:13.472Z,2.53
2023-01-09T23:13:41.318Z,2.35
2023-01-09T23:16:09.532Z,2.17
2023-01-09T23:18:37.211Z,2.40
2023-01-09T23:21:06.339Z,2.00
2023-01-09T23:23:34.018Z,2.25
2023-01-09T23:26:04.869Z,2.50
2023-01-09T23:28:32.520Z,2.58
2023-01-09T23:31:00.269Z,2.70
2023-01-09T23:33:27.954Z,2.20
2023-01-09T23:35:55.610Z,2.75
2023-01-09T23:38:24.722Z,2.28
2023-01-09T23:40:56.463Z,2.50
2023-01-09T23:43:23.613Z,2.55
2023-01-09T23:45:54.798Z,2.50
2023-01-09T23:48:22.480Z,2.00
2023-01-09T23:50:51.286Z,2.13
2023-01-09T23:53:19.338Z,2.08
2023-01-09T23:55:48.737Z,1.95
2023-01-09T23:58:16.463Z,1.60
